Time;durP1;ratioP1;P1;durP2;ratioP2;P2;SDS_P1;SDS_P2;PMS_P1;PMS_P2;Temp;Humidity;BMP_temperature;BMP_pressure;BME280_temperature;BME280_humidity;BME280_pressure;Samples;Min_cycle;Max_cycle;Signal;HPM_P1;HPM_P2
2022/08/22 01:57:12;;;;;;;4.68;1.70;;;19.80;67.90;;;;;;6183011;23;20041;-78
2022/08/22 01:59:42;;;;;;;5.57;1.80;;;19.90;67.80;;;;;;6181576;23;20009;-79
2022/08/22 02:02:13;;;;;;;5.90;1.90;;;20.00;67.60;;;;;;6182893;23;20001;-79
2022/08/22 02:04:43;;;;;;;5.43;1.80;;;19.90;67.90;;;;;;6182036;23;20016;-79
2022/08/22 02:07:32;;;;;;;4.82;1.80;;;19.80;68.40;;;;;;6181640;23;20001;-80
2022/08/22 02:10:06;;;;;;;5.68;2.00;;;19.70;68.80;;;;;;6181207;23;20005;-80
2022/08/22 02:12:51;;;;;;;4.13;1.60;;;19.70;69.10;;;;;;6181640;23;20001;-80
2022/08/22 02:15:38;;;;;;;4.22;1.77;;;19.60;69.30;;;;;;6181054;23;20171;-79
2022/08/22 02:18:04;;;;;;;4.18;1.70;;;19.60;69.20;;;;;;6180189;23;20005;-80
2022/08/22 02:20:32;;;;;;;3.65;1.70;;;19.60;69.30;;;;;;6182246;23;20005;-79
2022/08/22 02:23:16;;;;;;;3.55;1.60;;;19.70;69.40;;;;;;6182819;23;20001;-80
2022/08/22 02:25:52;;;;;;;4.30;1.95;;;19.70;69.30;;;;;;6181328;23;20013;-79
2022/08/22 02:28:29;;;;;;;2.88;1.50;;;19.70;69.10;;;;;;6181599;23;20500;-80
2022/08/22 02:31:19;;;;;;;5.95;1.95;;;19.80;68.90;;;;;;6182482;23;20001;-80
2022/08/22 02:33:44;;;;;;;4.13;1.90;;;19.70;69.30;;;;;;6181551;23;20425;-79
2022/08/22 02:36:50;;;;;;;6.90;3.40;;;19.70;69.50;;;;;;6179855;23;20013;-79
2022/08/22 02:39:38;;;;;;;5.53;2.70;;;19.60;70.00;;;;;;6179141;23;20069;-80
2022/08/22 02:42:12;;;;;;;5.28;2.10;;;19.60;70.00;;;;;;6181227;23;20156;-80
2022/08/22 02:44:46;;;;;;;3.17;1.70;;;19.50;70.20;;;;;;6179575;23;20073;-80
2022/08/22 02:47:31;;;;;;;5.55;2.38;;;19.60;70.10;;;;;;6181696;23;19997;-79
2022/08/22 02:50:21;;;;;;;5.20;1.80;;;19.50;70.40;;;;;;6181134;23;20335;-81
2022/08/22 02:52:50;;;;;;;3.55;1.80;;;19.60;70.30;;;;;;6181860;23;20451;-79
2022/08/22 02:55:18;;;;;;;5.25;1.80;;;19.70;69.90;;;;;;6180941;23;20009;-81
2022/08/22 02:58:10;;;;;;;3.60;1.80;;;19.70;70.00;;;;;;6180583;23;20452;-79
2022/08/22 03:01:08;;;;;;;4.55;2.00;;;19.60;70.20;;;;;;6181549;23;20009;-78
2022/08/22 03:03:39;;;;;;;4.90;2.00;;;19.60;70.30;;;;;;6181310;23;20017;-78
2022/08/22 03:06:15;;;;;;;4.13;1.88;;;19.60;70.50;;;;;;6181482;23;20001;-79
2022/08/22 03:09:19;;;;;;;4.63;2.10;;;19.60;70.70;;;;;;6181401;23;20016;-80
2022/08/22 03:12:01;;;;;;;2.65;1.70;;;19.50;70.80;;;;;;6181375;23;20001;-79
2022/08/22 03:14:53;;;;;;;4.80;1.95;;;19.50;71.00;;;;;;6182039;23;20005;-81
2022/08/22 03:17:29;;;;;;;4.18;2.05;;;19.50;71.10;;;;;;6182519;23;19997;-80
2022/08/22 03:20:11;;;;;;;6.38;2.50;;;19.50;72.20;;;;;;6179604;23;20001;-79
2022/08/22 03:22:58;;;;;;;6.35;2.28;;;19.40;71.70;;;;;;6181862;23;20027;-79
2022/08/22 03:25:44;;;;;;;6.25;2.25;;;19.40;71.90;;;;;;6181146;23;20020;-80
2022/08/22 03:28:35;;;;;;;3.13;1.88;;;19.30;72.20;;;;;;6134933;23;20001;-80
2022/08/22 03:31:14;;;;;;;5.32;2.50;;;19.30;72.00;;;;;;6181701;23;20451;-80
2022/08/22 03:33:41;;;;;;;6.38;2.40;;;19.40;71.90;;;;;;6181877;23;20016;-81
2022/08/22 03:36:25;;;;;;;6.43;2.08;;;19.30;72.10;;;;;;6179593;23;20314;-82
2022/08/22 03:39:08;;;;;;;3.97;1.67;;;19.30;72.20;;;;;;6181674;23;20001;-82
2022/08/22 03:42:09;;;;;;;5.03;1.92;;;19.40;71.90;;;;;;6179284;23;20084;-83
2022/08/22 03:44:45;;;;;;;6.88;2.30;;;19.50;71.60;;;;;;6179325;23;20016;-82
2022/08/22 03:47:33;;;;;;;5.15;2.10;;;19.40;71.90;;;;;;6179243;23;20005;-82
2022/08/22 03:50:25;;;;;;;5.35;2.10;;;19.40;72.00;;;;;;6179448;23;20016;-82
2022/08/22 03:53:22;;;;;;;6.43;2.20;;;19.30;72.30;;;;;;6181946;23;20008;-82
2022/08/22 03:56:16;;;;;;;5.38;2.45;;;19.30;72.40;;;;;;6181505;23;20492;-82
2022/08/22 03:59:06;;;;;;;5.63;1.90;;;19.20;72.80;;;;;;6181747;23;20001;-82
2022/08/22 04:01:52;;;;;;;5.38;2.03;;;19.30;72.50;;;;;;6182031;23;20035;-82
2022/08/22 04:04:32;;;;;;;6.68;2.40;;;19.30;72.50;;;;;;6183811;23;20139;-82
2022/08/22 04:07:04;;;;;;;4.85;1.85;;;19.30;72.50;;;;;;6182989;23;20445;-82
2022/08/22 04:09:48;;;;;;;;;;;19.30;72.50;;;;;;6183708;23;20005;-82
2022/08/22 04:12:47;;;;;;;4.03;2.00;;;19.30;72.60;;;;;;6184125;23;19908;-82
2022/08/22 04:15:27;;;;;;;5.65;2.08;;;19.20;72.90;;;;;;6181440;23;20032;-83
2022/08/22 04:18:21;;;;;;;4.97;2.05;;;19.20;72.80;;;;;;6181208;23;20080;-83
2022/08/22 04:20:55;;;;;;;6.55;2.22;;;19.20;72.80;;;;;;6183411;23;20004;-81
2022/08/22 04:23:58;;;;;;;5.28;2.38;;;19.30;72.70;;;;;;6183166;23;20071;-83
2022/08/22 04:26:46;;;;;;;5.20;2.10;;;19.30;72.50;;;;;;6182682;23;20020;-83
2022/08/22 04:29:40;;;;;;;3.67;1.90;;;19.30;72.40;;;;;;6182740;23;20001;-83
2022/08/22 04:32:24;;;;;;;7.15;2.00;;;19.30;72.20;;;;;;6181567;23;20009;-83
2022/08/22 04:34:57;;;;;;;5.28;1.80;;;19.40;72.00;;;;;;6180464;23;20040;-82
2022/08/22 04:37:36;;;;;;;5.95;2.03;;;19.40;71.90;;;;;;6181088;23;20027;-82
2022/08/22 04:40:07;;;;;;;4.93;2.00;;;19.40;71.80;;;;;;6181805;23;20008;-82
2022/08/22 04:42:54;;;;;;;4.07;2.00;;;19.50;71.80;;;;;;6181926;23;20005;-82
2022/08/22 04:45:34;;;;;;;4.82;2.33;;;19.40;71.80;;;;;;6182794;23;20352;-82
2022/08/22 04:48:13;;;;;;;6.45;2.63;;;19.40;72.00;;;;;;6182147;23;20012;-82
2022/08/22 04:50:58;;;;;;;4.97;2.15;;;19.30;72.30;;;;;;6182841;23;20429;-82
2022/08/22 04:53:48;;;;;;;7.78;2.50;;;19.30;72.40;;;;;;6182228;23;20016;-82
2022/08/22 04:56:38;;;;;;;5.82;2.50;;;19.30;72.70;;;;;;6180867;23;20021;-82
2022/08/22 04:59:11;;;;;;;6.53;2.70;;;19.20;72.80;;;;;;6182129;23;20009;-83
2022/08/22 05:01:53;;;;;;;5.43;2.30;;;19.20;72.90;;;;;;6181177;23;20446;-83
2022/08/22 05:04:22;;;;;;;;;;;19.20;72.80;;;;;;6183096;23;20392;-83
2022/08/22 05:06:53;;;;;;;3.30;1.85;;;19.30;72.60;;;;;;6182078;23;19905;-83
2022/08/22 05:09:25;;;;;;;4.93;2.20;;;19.30;72.70;;;;;;6182293;23;20032;-83
2022/08/22 05:11:56;;;;;;;5.07;2.25;;;19.20;72.90;;;;;;6182570;23;20056;-83
2022/08/22 05:14:41;;;;;;;6.75;2.30;;;19.20;72.90;;;;;;6180865;23;20511;-81
2022/08/22 05:17:11;;;;;;;5.10;2.05;;;19.20;72.80;;;;;;6180336;23;20437;-82
2022/08/22 05:19:40;;;;;;;5.18;2.30;;;19.10;73.20;;;;;;6182430;23;20052;-82
2022/08/22 05:22:17;;;;;;;7.65;2.60;;;19.10;73.20;;;;;;6182499;23;20002;-82
2022/08/22 05:24:47;;;;;;;6.63;2.20;;;19.20;73.10;;;;;;6182545;23;20009;-82
2022/08/22 05:27:22;;;;;;;6.43;2.55;;;19.20;73.00;;;;;;6182068;23;20024;-83
2022/08/22 05:29:53;;;;;;;5.10;2.10;;;19.20;73.00;;;;;;6181853;23;20009;-81
2022/08/22 05:32:33;;;;;;;3.80;1.80;;;19.20;72.90;;;;;;6182559;23;20075;-82
2022/08/22 05:35:02;;;;;;;4.32;1.63;;;19.20;72.50;;;;;;6181245;23;20443;-82
2022/08/22 05:37:47;;;;;;;4.07;1.60;;;19.30;72.20;;;;;;6181285;23;20005;-82
2022/08/22 05:40:21;;;;;;;6.43;2.17;;;19.30;72.00;;;;;;6182245;23;20001;-81
2022/08/22 05:42:47;;;;;;;5.70;2.03;;;19.40;71.80;;;;;;6181631;23;19997;-82
2022/08/22 05:45:15;;;;;;;4.65;1.83;;;19.40;71.70;;;;;;6180854;23;20009;-82
2022/08/22 05:47:56;;;;;;;4.82;2.10;;;19.40;71.80;;;;;;6182972;23;20409;-81
2022/08/22 05:50:24;;;;;;;5.90;2.22;;;19.40;71.80;;;;;;6180323;23;20005;-81
2022/08/22 05:53:16;;;;;;;3.83;1.65;;;19.40;71.70;;;;;;6183188;23;20001;-81
2022/08/22 05:55:51;;;;;;;;;;;19.40;71.50;;;;;;6165427;23;20051;-82
2022/08/22 05:58:35;;;;;;;3.15;1.70;;;19.50;71.40;;;;;;6180788;23;19904;-82
2022/08/22 06:01:16;;;;;;;4.15;1.80;;;19.50;71.20;;;;;;6182838;23;20335;-82
2022/08/22 06:04:04;;;;;;;3.40;1.80;;;19.60;71.00;;;;;;6182791;23;20368;-81
2022/08/22 06:06:36;;;;;;;4.95;1.85;;;19.60;70.90;;;;;;6181787;23;20013;-80
2022/08/22 06:09:46;;;;;;;4.35;2.00;;;19.60;70.70;;;;;;6181579;23;19997;-80
2022/08/22 06:12:15;;;;;;;4.95;2.00;;;19.60;70.70;;;;;;6110501;23;20506;-80
2022/08/22 06:15:00;;;;;;;5.55;2.40;;;19.60;70.70;;;;;;6182263;23;20001;-80
2022/08/22 06:17:41;;;;;;;5.03;1.80;;;19.50;70.70;;;;;;6182318;23;20027;-80
2022/08/22 06:20:11;;;;;;;4.57;2.40;;;19.60;70.70;;;;;;6182111;23;20001;-80
2022/08/22 06:22:44;;;;;;;5.68;2.00;;;19.60;70.40;;;;;;6180712;23;20001;-80
2022/08/22 06:25:13;;;;;;;5.97;2.13;;;19.70;70.40;;;;;;6180114;23;20017;-80
2022/08/22 06:27:39;;;;;;;6.03;2.60;;;19.80;70.10;;;;;;6182576;23;20007;-79
2022/08/22 06:30:06;;;;;;;3.38;1.77;;;19.80;70.00;;;;;;6180711;23;20056;-78
2022/08/22 06:32:43;;;;;;;3.53;1.90;;;20.00;69.80;;;;;;6180902;23;20421;-78
2022/08/22 06:35:23;;;;;;;5.10;2.13;;;20.00;69.40;;;;;;6181740;23;20012;-78
2022/08/22 06:37:52;;;;;;;4.40;1.73;;;20.00;69.40;;;;;;6182375;23;20322;-78
2022/08/22 06:40:18;;;;;;;5.13;2.20;;;20.10;69.20;;;;;;6181401;23;20012;-78
2022/08/22 06:42:49;;;;;;;4.38;1.80;;;20.20;69.10;;;;;;6182229;23;20099;-78
2022/08/22 06:45:30;;;;;;;3.17;1.40;;;20.20;69.10;;;;;;6180954;23;20013;-78
2022/08/22 06:48:05;;;;;;;4.40;1.55;;;20.30;68.70;;;;;;6181804;23;20240;-78
2022/08/22 06:50:33;;;;;;;3.30;1.67;;;20.50;68.40;;;;;;6182527;23;20370;-78
2022/08/22 06:53:07;;;;;;;4.60;1.90;;;20.70;67.90;;;;;;6179784;23;20003;-78
2022/08/22 06:55:37;;;;;;;3.25;1.95;;;20.90;67.40;;;;;;6179865;23;20028;-78
2022/08/22 06:58:13;;;;;;;3.88;1.60;;;21.00;67.10;;;;;;6179541;23;19997;-78
2022/08/22 07:00:41;;;;;;;4.55;1.90;;;21.10;66.90;;;;;;6180441;23;20005;-78
2022/08/22 07:03:16;;;;;;;5.03;2.17;;;21.10;66.80;;;;;;6181411;23;20001;-79
2022/08/22 07:05:42;;;;;;;5.22;2.85;;;21.10;66.70;;;;;;6177046;23;20013;-78
2022/08/22 07:08:12;;;;;;;5.03;2.22;;;20.90;67.00;;;;;;6176158;23;20033;-78
2022/08/22 07:10:43;;;;;;;4.85;2.10;;;20.90;67.20;;;;;;6177632;23;20417;-79
2022/08/22 07:13:15;;;;;;;4.90;2.17;;;20.90;67.20;;;;;;6179143;23;20001;-79
2022/08/22 07:15:41;;;;;;;;;;;20.80;67.30;;;;;;6173677;23;20842;-78
2022/08/22 07:18:11;;;;;;;3.70;2.20;;;20.90;67.40;;;;;;6179307;23;20569;-78
2022/08/22 07:20:43;;;;;;;4.75;2.20;;;20.90;67.30;;;;;;6179473;23;20052;-79
2022/08/22 07:23:13;;;;;;;4.65;2.22;;;21.00;67.00;;;;;;6180223;23;20060;-78
2022/08/22 07:26:01;;;;;;;4.45;2.08;;;21.10;66.70;;;;;;6179346;23;20009;-78
2022/08/22 07:29:03;;;;;;;3.53;2.15;;;21.20;66.40;;;;;;6181306;23;20005;-78
2022/08/22 07:31:30;;;;;;;3.25;1.70;;;21.20;66.20;;;;;;6127744;23;20009;-80
2022/08/22 07:34:12;;;;;;;4.40;2.35;;;21.20;66.20;;;;;;6174154;23;20032;-79
2022/08/22 07:37:10;;;;;;;3.58;1.90;;;21.40;66.00;;;;;;6175419;23;20085;-80
2022/08/22 07:39:51;;;;;;;2.67;1.80;;;21.50;65.70;;;;;;6121769;23;20349;-80
2022/08/22 07:42:22;;;;;;;4.38;2.03;;;21.60;65.40;;;;;;6176722;23;20005;-78
2022/08/22 07:44:47;;;;;;;5.00;2.20;;;21.70;65.20;;;;;;6176473;23;20337;-79
2022/08/22 07:47:17;;;;;;;5.38;2.10;;;21.70;65.10;;;;;;6172437;23;20033;-80
2022/08/22 07:50:03;;;;;;;5.28;1.85;;;21.80;65.10;;;;;;6174380;23;20005;-80
2022/08/22 07:52:39;;;;;;;5.32;2.40;;;21.80;65.20;;;;;;6175443;23;20009;-82
2022/08/22 07:55:25;;;;;;;3.80;2.00;;;21.90;65.10;;;;;;6173630;23;20017;-82
2022/08/22 07:58:04;;;;;;;7.22;2.38;;;22.20;65.30;;;;;;6176618;23;20015;-78
2022/08/22 08:00:31;;;;;;;4.32;2.25;;;22.50;64.10;;;;;;6177034;23;20001;-81
2022/08/22 08:03:04;;;;;;;4.80;2.15;;;23.30;62.70;;;;;;6177224;23;20380;-80
2022/08/22 08:05:35;;;;;;;3.63;2.17;;;24.20;60.20;;;;;;6175116;23;20013;-80
2022/08/22 08:08:07;;;;;;;5.30;2.53;;;24.00;59.90;;;;;;6177451;23;20005;-80
2022/08/22 08:10:38;;;;;;;4.25;1.80;;;24.30;59.20;;;;;;6175051;23;20005;-81
2022/08/22 08:13:13;;;;;;;4.57;2.28;;;25.00;57.80;;;;;;6177020;23;20001;-81
2022/08/22 08:15:42;;;;;;;3.65;1.70;;;24.40;58.20;;;;;;6174334;23;20016;-81
2022/08/22 08:18:13;;;;;;;5.32;1.95;;;24.60;58.20;;;;;;6176798;23;20001;-80
2022/08/22 08:20:38;;;;;;;5.85;2.35;;;24.30;58.50;;;;;;6175377;23;20056;-78
2022/08/22 08:23:08;;;;;;;3.80;2.10;;;24.20;58.70;;;;;;6176885;23;20005;-78
2022/08/22 08:25:55;;;;;;;4.05;2.10;;;25.10;58.20;;;;;;6174695;23;20005;-79
2022/08/22 08:28:35;;;;;;;6.00;2.30;;;26.50;56.10;;;;;;6175634;23;20328;-78
2022/08/22 08:31:30;;;;;;;4.15;1.80;;;27.50;54.10;;;;;;6175657;23;20005;-78
2022/08/22 08:34:05;;;;;;;6.30;2.40;;;28.10;53.00;;;;;;6175813;23;20067;-80
2022/08/22 08:36:38;;;;;;;4.57;2.00;;;27.80;52.90;;;;;;6176220;23;20006;-79
2022/08/22 08:39:22;;;;;;;3.47;1.77;;;27.90;53.10;;;;;;6176421;23;20394;-80
2022/08/22 08:41:48;;;;;;;3.17;1.67;;;27.60;53.50;;;;;;6174699;23;20005;-79
2022/08/22 08:44:32;;;;;;;3.95;1.73;;;27.20;53.40;;;;;;6174221;23;20121;-79
2022/08/22 08:47:20;;;;;;;4.55;2.08;;;27.00;54.10;;;;;;6175164;23;19997;-78
2022/08/22 08:50:12;;;;;;;4.63;2.00;;;26.40;53.80;;;;;;6177331;23;20009;-78
2022/08/22 08:53:04;;;;;;;4.50;2.00;;;25.90;54.00;;;;;;6173834;23;20005;-81
2022/08/22 08:55:56;;;;;;;4.32;1.80;;;25.50;54.30;;;;;;6172721;23;20048;-80
2022/08/22 08:58:46;;;;;;;6.35;1.88;;;25.10;54.60;;;;;;6176883;23;20360;-79
2022/08/22 09:01:41;;;;;;;3.83;1.70;;;24.90;55.20;;;;;;6174453;23;20384;-79
2022/08/22 09:04:20;;;;;;;4.65;1.95;;;24.80;55.70;;;;;;6173242;23;20021;-79
2022/08/22 09:07:15;;;;;;;6.28;2.25;;;24.60;56.00;;;;;;6176138;23;20036;-78
2022/08/22 09:10:03;;;;;;;4.55;1.80;;;24.40;56.30;;;;;;6171943;23;20333;-79
2022/08/22 09:13:01;;;;;;;2.00;1.40;;;24.20;56.60;;;;;;6177193;23;20001;-80
2022/08/22 09:16:02;;;;;;;3.67;1.45;;;24.30;57.00;;;;;;6124863;23;20099;-79
2022/08/22 09:18:40;;;;;;;4.80;1.85;;;24.40;56.90;;;;;;6175965;23;20189;-79
2022/08/22 09:21:24;;;;;;;4.72;1.95;;;24.30;56.80;;;;;;6178926;23;20435;-79
2022/08/22 09:24:17;;;;;;;2.58;1.23;;;24.40;56.80;;;;;;6177099;23;20005;-79
2022/08/22 09:27:00;;;;;;;5.68;1.80;;;24.70;56.60;;;;;;6176098;23;20507;-79
2022/08/22 09:29:47;;;;;;;3.08;1.33;;;24.80;56.10;;;;;;6176250;23;20001;-79
2022/08/22 09:33:00;;;;;;;5.40;1.80;;;25.00;55.70;;;;;;6178256;23;20032;-80
2022/08/22 09:35:32;;;;;;;2.45;1.40;;;25.20;55.50;;;;;;6083846;23;20225;-79
2022/08/22 09:38:18;;;;;;;4.57;1.88;;;25.50;55.10;;;;;;6085993;23;20011;-79
2022/08/22 09:40:55;;;;;;;6.40;1.90;;;25.60;54.50;;;;;;6145856;23;20017;-78
2022/08/22 09:43:40;;;;;;;3.22;1.50;;;25.70;54.10;;;;;;6177974;23;20001;-78
2022/08/22 09:46:30;;;;;;;3.05;1.60;;;25.90;52.90;;;;;;6176225;23;20240;-79
2022/08/22 09:49:26;;;;;;;4.80;1.90;;;25.90;52.00;;;;;;6175789;23;20001;-79
2022/08/22 09:52:28;;;;;;;5.68;2.00;;;25.70;51.20;;;;;;6166349;23;20375;-81
2022/08/22 09:55:38;;;;;;;8.00;2.10;;;25.50;51.00;;;;;;6173227;23;20036;-79
2022/08/22 09:58:36;;;;;;;6.78;2.10;;;25.60;51.40;;;;;;6141035;23;20428;-78
2022/08/22 10:01:26;;;;;;;5.40;1.65;;;25.80;51.50;;;;;;6176357;23;20008;-78
2022/08/22 10:04:13;;;;;;;14.73;2.20;;;26.00;51.40;;;;;;6172693;23;20028;-78
2022/08/22 10:06:59;;;;;;;4.72;2.33;;;26.10;50.90;;;;;;6178339;23;20012;-78
2022/08/22 10:09:32;;;;;;;5.05;1.75;;;26.00;49.40;;;;;;6179358;23;20005;-78
2022/08/22 10:12:09;;;;;;;3.22;1.50;;;26.10;50.20;;;;;;6173008;23;20008;-78
2022/08/22 10:14:59;;;;;;;4.35;1.70;;;26.20;50.00;;;;;;6178094;23;20016;-78
2022/08/22 10:17:31;;;;;;;5.15;1.60;;;26.30;49.20;;;;;;6178091;23;20009;-78
2022/08/22 10:20:22;;;;;;;4.38;1.60;;;26.20;49.30;;;;;;6176926;23;20005;-78
2022/08/22 10:23:23;;;;;;;4.78;1.55;;;26.30;49.40;;;;;;6178069;23;20686;-78
2022/08/22 10:25:57;;;;;;;4.25;1.80;;;26.20;48.40;;;;;;6176123;23;20068;-77
2022/08/22 10:28:30;;;;;;;3.42;1.60;;;26.20;48.50;;;;;;6178449;23;20012;-77
2022/08/22 10:31:24;;;;;;;3.55;1.83;;;26.20;48.60;;;;;;6177156;23;20500;-77
2022/08/22 10:33:56;;;;;;;3.83;1.40;;;26.20;48.40;;;;;;6174744;23;20009;-78
2022/08/22 10:36:50;;;;;;;3.75;1.58;;;26.20;48.10;;;;;;6175682;23;20009;-77
2022/08/22 10:39:31;;;;;;;5.20;1.85;;;26.10;48.20;;;;;;6128420;23;20016;-77
2022/08/22 10:42:08;;;;;;;4.78;1.80;;;26.10;48.10;;;;;;6178557;23;20516;-77
2022/08/22 10:44:48;;;;;;;5.72;2.30;;;26.20;48.00;;;;;;6179468;23;20005;-77
2022/08/22 10:47:24;;;;;;;3.75;1.65;;;26.20;47.20;;;;;;6169395;23;20025;-77
2022/08/22 10:50:01;;;;;;;3.97;1.67;;;26.20;47.20;;;;;;6176092;23;20063;-77
2022/08/22 10:52:31;;;;;;;2.97;1.45;;;26.20;47.20;;;;;;6178574;23;20061;-78
2022/08/22 10:55:12;;;;;;;4.13;1.98;;;26.20;46.90;;;;;;6176250;23;20012;-78
2022/08/22 10:58:07;;;;;;;4.50;1.70;;;26.20;47.10;;;;;;6178300;23;20009;-78
2022/08/22 11:00:52;;;;;;;4.82;1.83;;;26.20;47.20;;;;;;6178244;23;20573;-78
2022/08/22 11:03:33;;;;;;;5.35;1.92;;;26.20;46.70;;;;;;6178353;23;20005;-79
2022/08/22 11:06:08;;;;;;;3.50;1.50;;;26.20;46.60;;;;;;6178480;23;20556;-77
2022/08/22 11:08:53;;;;;;;3.83;1.88;;;26.30;46.40;;;;;;6177449;23;20012;-79
2022/08/22 11:11:37;;;;;;;3.22;1.67;;;26.20;46.10;;;;;;6176793;23;20013;-80
2022/08/22 11:14:12;;;;;;;5.15;1.80;;;26.20;45.80;;;;;;6177265;23;20001;-81
2022/08/22 11:17:04;;;;;;;1.83;1.27;;;26.30;45.70;;;;;;6176334;23;20566;-80
2022/08/22 11:19:44;;;;;;;3.83;1.50;;;26.50;46.10;;;;;;6172479;23;20036;-80
2022/08/22 11:22:28;;;;;;;3.80;1.58;;;26.50;45.70;;;;;;6176854;23;20013;-79
2022/08/22 11:25:19;;;;;;;4.28;1.45;;;26.60;45.30;;;;;;6175390;23;20017;-79
2022/08/22 11:27:51;;;;;;;6.03;2.10;;;26.60;44.90;;;;;;6176981;23;20047;-79
2022/08/22 11:30:28;;;;;;;4.10;1.63;;;26.40;44.20;;;;;;6177808;23;20037;-79
2022/08/22 11:33:17;;;;;;;3.58;1.60;;;26.40;44.70;;;;;;6177441;23;20051;-79
2022/08/22 11:36:07;;;;;;;3.58;1.40;;;26.60;44.70;;;;;;6175340;23;20395;-80
2022/08/22 11:38:55;;;;;;;3.20;1.58;;;26.70;44.80;;;;;;6176748;23;20012;-80
2022/08/22 11:42:05;;;;;;;3.30;1.58;;;26.70;43.70;;;;;;6175098;23;20005;-81
2022/08/22 11:44:53;;;;;;;2.83;1.20;;;26.80;43.90;;;;;;6154334;23;20012;-77
2022/08/22 11:47:22;;;;;;;4.75;1.55;;;27.10;43.80;;;;;;6174125;23;20039;-80
2022/08/22 11:49:51;;;;;;;6.70;1.60;;;27.20;43.10;;;;;;6176881;23;20425;-79
2022/08/22 11:52:38;;;;;;;2.35;1.27;;;27.20;42.40;;;;;;6175287;23;20005;-81
2022/08/22 11:55:07;;;;;;;3.38;1.58;;;27.30;42.10;;;;;;6176938;23;20044;-79
2022/08/22 11:57:41;;;;;;;2.75;1.42;;;27.10;40.30;;;;;;6177101;23;20024;-79
2022/08/22 12:00:25;;;;;;;2.50;1.30;;;27.30;41.10;;;;;;6176639;23;20016;-79
2022/08/22 12:02:57;;;;;;;2.58;1.10;;;27.50;41.00;;;;;;6175769;23;20001;-78
2022/08/22 12:05:25;;;;;;;;;;;27.70;40.60;;;;;;6176996;23;20020;-79
2022/08/22 12:08:12;;;;;;;1.88;0.98;;;27.90;40.30;;;;;;6167368;23;19904;-77
2022/08/22 12:11:13;;;;;;;2.72;1.48;;;28.00;39.60;;;;;;6172799;23;20001;-78
2022/08/22 12:13:48;;;;;;;2.10;1.23;;;27.90;38.80;;;;;;6153771;23;20016;-79
2022/08/22 12:16:35;;;;;;;3.97;1.40;;;28.10;39.30;;;;;;6174615;23;20009;-78
2022/08/22 12:19:25;;;;;;;4.72;1.63;;;28.20;39.40;;;;;;6172754;23;20005;-79
2022/08/22 12:21:59;;;;;;;2.95;1.30;;;28.20;39.90;;;;;;6177839;23;20314;-79
2022/08/22 12:24:36;;;;;;;5.32;1.88;;;28.30;40.10;;;;;;6178438;23;20488;-78
2022/08/22 12:27:14;;;;;;;4.70;1.70;;;28.40;40.00;;;;;;6177387;23;20119;-78
2022/08/22 12:30:04;;;;;;;3.92;1.70;;;28.30;40.30;;;;;;6174471;23;20467;-78
2022/08/22 12:32:49;;;;;;;2.53;1.40;;;28.10;40.50;;;;;;6177779;23;20005;-82
2022/08/22 12:35:41;;;;;;;5.38;1.80;;;28.10;40.70;;;;;;6176081;23;20047;-78
2022/08/22 12:38:33;;;;;;;3.22;1.58;;;28.10;40.40;;;;;;6134726;23;20012;-79
2022/08/22 12:41:27;;;;;;;3.17;1.42;;;28.00;40.90;;;;;;6175190;23;20667;-79
2022/08/22 12:44:32;;;;;;;2.67;1.40;;;28.20;40.70;;;;;;6178509;23;20013;-80
2022/08/22 12:47:29;;;;;;;2.42;1.40;;;28.40;40.70;;;;;;6128098;23;20006;-80
2022/08/22 12:50:16;;;;;;;3.28;1.50;;;28.70;40.70;;;;;;6178461;23;20071;-79
2022/08/22 12:52:48;;;;;;;4.20;1.67;;;28.60;40.30;;;;;;6177198;23;20001;-79
2022/08/22 12:55:38;;;;;;;3.92;2.22;;;28.50;40.20;;;;;;6179443;23;20096;-78
2022/08/22 12:58:46;;;;;;;3.95;1.90;;;28.60;40.00;;;;;;6177293;23;20013;-79
2022/08/22 13:01:12;;;;;;;4.85;1.60;;;28.60;40.20;;;;;;6178060;23;20009;-78
2022/08/22 13:03:55;;;;;;;2.22;1.20;;;28.60;40.20;;;;;;6175615;23;20040;-77
2022/08/22 13:06:36;;;;;;;4.00;1.85;;;28.70;40.10;;;;;;6178579;23;20399;-77
2022/08/22 13:09:17;;;;;;;4.55;1.50;;;28.70;39.90;;;;;;6178560;23;20009;-78
2022/08/22 13:11:46;;;;;;;4.03;1.70;;;28.70;40.00;;;;;;6176094;23;20088;-78
2022/08/22 13:14:18;;;;;;;2.80;1.60;;;28.70;40.00;;;;;;6174012;23;20913;-78
2022/08/22 13:16:53;;;;;;;3.25;1.45;;;28.60;39.60;;;;;;6174664;23;20013;-78
2022/08/22 13:19:32;;;;;;;4.18;1.50;;;28.80;40.10;;;;;;6179025;23;20012;-77
2022/08/22 13:22:08;;;;;;;3.60;1.58;;;28.90;39.70;;;;;;6167469;23;20012;-78
2022/08/22 13:24:53;;;;;;;3.15;1.58;;;29.00;39.90;;;;;;6174593;23;20145;-78
2022/08/22 13:27:30;;;;;;;2.78;1.40;;;28.90;39.40;;;;;;6177457;23;20507;-80
2022/08/22 13:30:03;;;;;;;1.55;1.08;;;29.00;39.40;;;;;;6177468;23;20013;-80
2022/08/22 13:32:40;;;;;;;3.55;1.42;;;29.00;39.50;;;;;;6178263;23;20329;-80
2022/08/22 13:35:16;;;;;;;4.65;1.70;;;29.10;39.60;;;;;;6178393;23;20016;-80
2022/08/22 13:37:46;;;;;;;1.75;1.30;;;29.00;38.70;;;;;;6176770;23;19998;-79
2022/08/22 13:40:22;;;;;;;3.03;1.30;;;29.00;39.10;;;;;;6178223;23;20421;-79
2022/08/22 13:42:55;;;;;;;2.20;1.50;;;29.20;39.40;;;;;;6178585;23;20365;-78
2022/08/22 13:45:26;;;;;;;2.97;1.50;;;29.20;39.10;;;;;;6178165;23;20013;-79
2022/08/22 13:48:05;;;;;;;3.55;1.70;;;29.20;39.00;;;;;;6176624;23;20012;-78
2022/08/22 13:50:34;;;;;;;3.22;1.40;;;29.10;38.60;;;;;;6178209;23;20005;-79
2022/08/22 13:53:09;;;;;;;2.97;1.50;;;29.00;38.70;;;;;;6176127;23;20005;-78
2022/08/22 13:55:48;;;;;;;4.15;1.88;;;29.00;38.80;;;;;;6177577;23;20067;-79
2022/08/22 13:58:51;;;;;;;2.42;1.10;;;29.00;38.40;;;;;;6177899;23;20008;-79
2022/08/22 14:01:42;;;;;;;3.95;1.35;;;28.90;38.70;;;;;;6177693;23;20009;-80
2022/08/22 14:04:28;;;;;;;3.67;1.60;;;28.90;38.70;;;;;;6177081;23;20171;-77
2022/08/22 14:06:56;;;;;;;5.15;1.70;;;28.90;38.50;;;;;;6174435;23;20802;-79
2022/08/22 14:09:47;;;;;;;4.30;1.52;;;29.00;38.60;;;;;;6175706;23;20339;-79
2022/08/22 14:12:19;;;;;;;4.18;1.75;;;28.90;38.10;;;;;;6176656;23;20009;-79
2022/08/22 14:14:47;;;;;;;3.85;1.40;;;28.90;37.70;;;;;;6176052;23;20148;-78
2022/08/22 14:17:21;;;;;;;3.65;1.50;;;28.70;37.40;;;;;;6174976;23;20001;-79
2022/08/22 14:19:57;;;;;;;2.25;1.23;;;28.60;37.60;;;;;;6172193;23;20009;-78
2022/08/22 14:22:27;;;;;;;3.25;1.63;;;28.70;38.00;;;;;;6185593;23;20005;-77
2022/08/22 14:25:00;;;;;;;3.08;1.60;;;28.60;38.00;;;;;;6186077;23;20013;-77
2022/08/22 14:27:37;;;;;;;4.35;1.73;;;28.50;38.20;;;;;;6215051;22;20627;-69
2022/08/22 14:30:14;;;;;;;2.60;1.40;;;28.40;38.20;;;;;;6241963;22;19996;-68
2022/08/22 14:32:52;;;;;;;3.15;1.35;;;28.30;38.40;;;;;;6240778;22;20008;-68
2022/08/22 14:35:39;;;;;;;3.97;1.48;;;28.40;38.60;;;;;;6240524;22;20179;-68
2022/08/22 14:38:45;;;;;;;3.45;1.25;;;28.50;38.80;;;;;;6240195;23;20007;-68
2022/08/22 14:41:28;;;;;;;2.45;1.30;;;28.50;38.70;;;;;;6239813;23;20011;-68
2022/08/22 14:44:05;;;;;;;2.85;1.30;;;28.50;38.70;;;;;;6240652;23;20091;-68
2022/08/22 14:47:02;;;;;;;2.08;1.30;;;28.40;38.40;;;;;;6240311;23;20007;-68
2022/08/22 14:49:59;;;;;;;4.45;1.23;;;28.20;38.50;;;;;;6239973;23;20054;-69
2022/08/22 14:52:47;;;;;;;4.72;1.38;;;28.10;38.60;;;;;;6235028;23;20024;-68
2022/08/22 14:55:21;;;;;;;2.72;1.10;;;28.00;39.00;;;;;;6239010;23;20007;-68
2022/08/22 14:57:56;;;;;;;2.65;1.33;;;28.00;39.20;;;;;;6237667;23;20000;-69
2022/08/22 15:00:28;;;;;;;3.13;1.25;;;28.10;39.30;;;;;;6240873;23;20004;-70
2022/08/22 15:03:06;;;;;;;2.42;1.30;;;28.10;39.20;;;;;;6240042;23;20011;-68
2022/08/22 15:05:41;;;;;;;2.80;1.50;;;28.10;39.10;;;;;;6241436;23;20011;-68
2022/08/22 15:08:09;;;;;;;4.05;1.40;;;27.90;38.90;;;;;;6239991;23;20004;-68
2022/08/22 15:10:35;;;;;;;2.63;1.25;;;27.90;38.90;;;;;;6242231;23;20004;-68
2022/08/22 15:13:04;;;;;;;3.25;1.50;;;27.90;39.00;;;;;;6241621;23;20000;-68
2022/08/22 15:15:49;;;;;;;3.65;1.70;;;27.80;38.70;;;;;;6241293;22;20012;-68
2022/08/22 15:18:34;;;;;;;4.00;1.60;;;28.00;39.10;;;;;;6240037;22;20333;-68
2022/08/22 15:21:32;;;;;;;2.47;1.35;;;27.90;38.60;;;;;;6240999;23;20011;-68
2022/08/22 15:24:05;;;;;;;2.63;1.17;;;27.90;38.80;;;;;;6236363;23;20410;-68
2022/08/22 15:26:36;;;;;;;2.38;1.42;;;28.10;38.80;;;;;;6237877;23;20007;-68
2022/08/22 15:29:16;;;;;;;4.68;1.70;;;28.20;38.60;;;;;;6235742;23;20018;-69
2022/08/22 15:31:42;;;;;;;2.25;1.45;;;28.10;38.10;;;;;;6236775;23;20004;-69
2022/08/22 15:34:19;;;;;;;4.03;1.60;;;28.00;38.10;;;;;;6238252;23;20011;-69
2022/08/22 15:37:26;;;;;;;4.05;1.30;;;28.00;38.10;;;;;;6238400;23;20007;-69
2022/08/22 15:40:26;;;;;;;2.40;1.33;;;28.20;38.20;;;;;;6248265;23;20061;-69
2022/08/22 15:42:51;;;;;;;3.30;1.50;;;28.30;37.90;;;;;;6242096;23;20008;-69
2022/08/22 15:45:29;;;;;;;4.18;1.50;;;28.10;37.80;;;;;;6240411;23;20012;-69
2022/08/22 15:47:55;;;;;;;3.58;1.70;;;27.90;38.30;;;;;;6239049;23;20340;-69
2022/08/22 15:50:33;;;;;;;3.38;1.85;;;27.80;38.40;;;;;;6238993;23;20000;-69
2022/08/22 15:53:13;;;;;;;3.40;1.50;;;27.40;38.50;;;;;;6240234;22;20628;-69